Time;durP1;ratioP1;P1;durP2;ratioP2;P2;SDS_P1;SDS_P2;PMS_P1;PMS_P2;Temp;Humidity;BMP_temperature;BMP_pressure;BME280_temperature;BME280_humidity;BME280_pressure;Samples;Min_cycle;Max_cycle;Signal;HPM_P1;HPM_P2
2022/10/23 00:00:47;;;;;;;9.48;3.30;;;;;;;12.04;77.65;100214.63;5053331;28;20053;-83
2022/10/23 00:03:17;;;;;;;7.95;3.60;;;;;;;12.07;77.19;100213.13;5057550;28;20048;-83
2022/10/23 00:05:48;;;;;;;8.02;3.80;;;;;;;12.07;78.03;100213.94;5073032;28;20067;-83
2022/10/23 00:08:15;;;;;;;4.07;2.80;;;;;;;12.11;77.06;100212.13;5073687;28;20059;-83
2022/10/23 00:10:43;;;;;;;13.02;3.33;;;;;;;12.12;77.24;100204.59;5073476;28;20061;-83
2022/10/23 00:13:13;;;;;;;5.38;2.97;;;;;;;12.08;77.71;100207.22;5073049;28;20049;-83
2022/10/23 00:15:42;;;;;;;8.75;3.40;;;;;;;12.09;76.83;100208.84;5065813;28;20060;-83
2022/10/23 00:18:09;;;;;;;8.52;3.45;;;;;;;12.07;77.15;100210.34;5053064;28;20072;-83
2022/10/23 00:20:37;;;;;;;6.80;3.40;;;;;;;12.05;77.17;100207.06;5053321;28;20069;-84
2022/10/23 00:23:04;;;;;;;5.72;2.90;;;;;;;12.01;76.77;100209.72;5053459;28;20067;-84
2022/10/23 00:25:32;;;;;;;5.82;3.10;;;;;;;11.98;76.18;100210.34;5052820;28;20048;-83
2022/10/23 00:27:59;;;;;;;6.13;2.78;;;;;;;11.95;76.39;100206.25;5052726;28;20053;-83
2022/10/23 00:30:26;;;;;;;6.82;3.20;;;;;;;11.92;76.34;100211.69;5037275;28;20050;-83
2022/10/23 00:32:55;;;;;;;6.70;3.72;;;;;;;11.89;75.76;100210.38;5069302;28;20056;-84
2022/10/23 00:35:22;;;;;;;7.70;3.30;;;;;;;11.84;76.60;100206.88;5073039;28;20071;-84
2022/10/23 00:37:53;;;;;;;7.20;3.30;;;;;;;11.79;76.44;100207.88;5073349;28;20167;-83
2022/10/23 00:40:20;;;;;;;8.38;3.15;;;;;;;11.75;76.58;100213.28;5072905;28;20055;-84
2022/10/23 00:42:48;;;;;;;8.02;4.13;;;;;;;11.73;76.25;100220.34;5072838;28;20052;-83
2022/10/23 00:45:20;;;;;;;6.35;3.63;;;;;;;11.67;76.70;100225.28;5069473;28;20049;-83
2022/10/23 00:47:49;;;;;;;6.03;3.40;;;;;;;11.66;77.13;100220.84;5052763;28;20405;-84
2022/10/23 00:50:19;;;;;;;5.63;3.30;;;;;;;11.66;76.48;100220.03;5052983;28;20053;-84
2022/10/23 00:52:53;;;;;;;10.23;3.80;;;;;;;11.62;76.90;100224.63;5052949;28;20068;-84
2022/10/23 00:55:25;;;;;;;6.18;3.10;;;;;;;11.59;76.69;100220.53;5053028;28;20068;-84
2022/10/23 00:57:53;;;;;;;7.10;3.17;;;;;;;11.55;76.60;100219.56;5052536;28;20417;-83
2022/10/23 01:00:24;;;;;;;6.13;3.30;;;;;;;11.51;76.52;100227.75;5052561;28;20060;-88
2022/10/23 01:02:53;;;;;;;6.68;3.30;;;;;;;11.49;76.98;100220.84;5053208;28;20082;-88
2022/10/23 01:05:30;;;;;;;6.10;3.20;;;;;;;11.43;77.01;100236.09;5052777;28;20064;-88
2022/10/23 01:08:06;;;;;;;8.02;4.30;;;;;;;11.36;77.33;100226.25;5053461;28;20057;-88
2022/10/23 01:10:39;;;;;;;8.50;3.90;;;;;;;11.36;76.88;100222.66;5053590;28;20417;-88
2022/10/23 01:13:15;;;;;;;5.72;3.72;;;;;;;11.31;76.88;100215.22;5053207;28;20072;-88
2022/10/23 01:15:49;;;;;;;8.00;3.78;;;;;;;11.31;77.38;100220.00;5053325;28;20413;-88
2022/10/23 01:18:22;;;;;;;5.43;3.50;;;;;;;11.26;77.79;100217.38;5053626;28;20053;-88
2022/10/23 01:20:56;;;;;;;7.70;4.05;;;;;;;11.27;77.95;100227.38;5053021;28;20410;-87
2022/10/23 01:23:42;;;;;;;6.10;3.65;;;;;;;11.23;78.30;100213.25;5060312;28;20413;-88
2022/10/23 01:26:20;;;;;;;4.75;3.00;;;;;;;11.24;77.53;100214.91;5053214;28;20509;-88
2022/10/23 01:28:52;;;;;;;5.57;3.10;;;;;;;11.23;77.91;100215.22;5052419;28;20055;-88
2022/10/23 01:31:27;;;;;;;7.35;2.78;;;;;;;11.24;78.30;100214.91;5054109;28;20064;-88
2022/10/23 01:33:59;;;;;;;8.20;2.55;;;;;;;11.24;78.37;100212.13;5033734;28;20425;-88
2022/10/23 01:36:31;;;;;;;4.78;2.55;;;;;;;11.22;78.33;100213.59;5033599;28;20057;-88
2022/10/23 01:39:04;;;;;;;6.30;2.38;;;;;;;11.22;78.60;100211.63;5033578;28;20061;-88
2022/10/23 01:41:39;;;;;;;7.75;3.10;;;;;;;11.21;78.75;100203.56;5035184;28;20057;-88
2022/10/23 01:44:16;;;;;;;5.13;2.70;;;;;;;11.19;78.30;100198.31;5053670;28;20068;-88
2022/10/23 01:46:46;;;;;;;6.70;2.80;;;;;;;11.15;78.53;100195.38;5057512;28;20068;-88
2022/10/23 01:49:18;;;;;;;5.25;2.70;;;;;;;11.19;79.09;100195.53;5056741;28;20061;-88
2022/10/23 01:51:50;;;;;;;3.42;2.45;;;;;;;11.19;78.55;100192.75;5057131;28;20057;-87
2022/10/23 01:54:25;;;;;;;10.65;3.88;;;;;;;11.17;78.50;100195.03;5056931;28;20061;-88
2022/10/23 01:56:53;;;;;;;11.90;4.80;;;;;;;11.14;78.36;100192.91;5056685;28;20409;-88
2022/10/23 01:59:27;;;;;;;12.57;4.00;;;;;;;11.14;78.65;100182.56;5057037;28;20057;-87
2022/10/23 02:01:56;;;;;;;8.48;5.28;;;;;;;11.11;78.93;100177.66;5057120;28;20080;-88
2022/10/23 02:04:29;;;;;;;5.25;3.88;;;;;;;11.13;78.63;100171.78;5056583;28;20071;-88
2022/10/23 02:06:57;;;;;;;8.25;3.50;;;;;;;11.14;78.44;100162.25;5057106;28;20057;-88
2022/10/23 02:09:24;;;;;;;6.43;3.42;;;;;;;11.13;78.58;100157.84;5055903;28;20080;-88
2022/10/23 02:11:56;;;;;;;7.38;3.35;;;;;;;11.10;78.14;100158.47;5056908;28;20061;-88
2022/10/23 02:14:37;;;;;;;8.95;3.83;;;;;;;11.11;78.42;100154.56;5056549;28;20053;-88
2022/10/23 02:17:14;;;;;;;8.80;3.95;;;;;;;11.11;78.44;100148.97;5056241;28;20057;-88
2022/10/23 02:19:46;;;;;;;7.43;3.42;;;;;;;11.11;78.03;100148.97;5056183;28;20053;-88
2022/10/23 02:22:21;;;;;;;5.05;3.88;;;;;;;11.15;78.53;100147.19;5056866;28;20456;-88
2022/10/23 02:24:54;;;;;;;5.50;3.40;;;;;;;11.13;78.33;100141.91;5057264;28;20068;-88
2022/10/23 02:27:28;;;;;;;8.88;3.95;;;;;;;11.16;78.20;100148.81;5056503;28;20057;-88
2022/10/23 02:30:03;;;;;;;6.45;3.50;;;;;;;11.16;78.28;100148.81;5039407;28;20060;-89
2022/10/23 02:32:31;;;;;;;6.70;3.92;;;;;;;11.13;78.28;100143.91;5056626;28;20059;-88
2022/10/23 02:35:08;;;;;;;4.78;3.10;;;;;;;11.16;78.14;100134.88;5055555;28;20061;-88
2022/10/23 02:37:35;;;;;;;5.35;2.85;;;;;;;11.15;77.86;100127.66;5056535;28;20064;-88
2022/10/23 02:40:03;;;;;;;5.57;2.90;;;;;;;11.17;78.13;100130.91;5055060;28;20049;-88
2022/10/23 02:42:36;;;;;;;5.82;3.00;;;;;;;11.19;77.97;100131.41;5055682;28;20073;-88
2022/10/23 02:45:09;;;;;;;6.20;2.92;;;;;;;11.17;77.57;100131.75;5055746;28;20053;-88
2022/10/23 02:47:52;;;;;;;6.50;2.58;;;;;;;11.18;77.25;100133.38;5055748;28;20061;-88
2022/10/23 02:50:29;;;;;;;5.63;2.70;;;;;;;11.15;77.85;100116.50;5055172;28;20060;-88
2022/10/23 02:53:03;;;;;;;3.95;2.63;;;;;;;11.21;77.44;100123.53;5054037;28;20068;-88
2022/10/23 02:55:44;;;;;;;5.15;2.65;;;;;;;11.19;77.49;100109.09;5060014;28;20064;-88
2022/10/23 02:58:22;;;;;;;6.63;2.53;;;;;;;11.21;77.69;100098.44;5055624;28;20481;-88
2022/10/23 03:00:59;;;;;;;4.38;2.08;;;;;;;11.22;77.46;100100.09;5065155;28;20052;-88
2022/10/23 03:03:31;;;;;;;7.20;2.65;;;;;;;11.23;76.74;100100.91;5069534;28;20064;-88
2022/10/23 03:05:59;;;;;;;7.70;2.35;;;;;;;11.20;77.87;100096.81;5054854;28;20052;-88
2022/10/23 03:08:26;;;;;;;5.03;2.38;;;;;;;11.21;77.13;100101.25;5055419;28;20053;-89
2022/10/23 03:10:53;;;;;;;6.15;2.80;;;;;;;11.22;77.60;100099.28;5054747;28;20053;-88
2022/10/23 03:13:22;;;;;;;6.03;2.30;;;;;;;11.20;77.63;100098.81;5055565;28;20057;-88
2022/10/23 03:15:50;;;;;;;5.50;2.70;;;;;;;11.21;77.41;100104.03;5055234;28;20504;-89
2022/10/23 03:18:18;;;;;;;6.35;2.50;;;;;;;11.22;77.55;100111.25;5055631;28;20057;-89
2022/10/23 03:20:45;;;;;;;9.07;2.75;;;;;;;11.22;77.01;100111.25;5055547;28;20061;-89
2022/10/23 03:23:13;;;;;;;6.80;2.83;;;;;;;11.20;77.38;100105.19;5055559;28;20051;-88
2022/10/23 03:25:43;;;;;;;7.88;2.60;;;;;;;11.21;77.42;100106.00;5072373;28;20060;-88
2022/10/23 03:28:11;;;;;;;8.07;2.50;;;;;;;11.18;77.06;100086.00;5064986;28;20060;-88
2022/10/23 03:30:38;;;;;;;4.72;2.70;;;;;;;11.17;77.39;100089.09;5054888;28;20057;-88
2022/10/23 03:33:07;;;;;;;4.22;2.25;;;;;;;11.16;77.22;100081.91;5054936;28;20489;-88
2022/10/23 03:35:34;;;;;;;4.57;2.55;;;;;;;11.15;77.24;100077.50;5055033;28;20061;-87
2022/10/23 03:38:02;;;;;;;4.95;2.20;;;;;;;11.12;77.31;100076.16;5054461;28;20421;-88
2022/10/23 03:40:29;;;;;;;6.68;2.58;;;;;;;11.12;77.31;100076.16;5054633;28;20144;-88
2022/10/23 03:42:56;;;;;;;6.55;2.72;;;;;;;11.12;77.50;100075.34;5054456;28;20413;-89
2022/10/23 03:45:24;;;;;;;6.07;2.40;;;;;;;11.11;77.36;100077.31;5054571;28;20060;-88
2022/10/23 03:47:51;;;;;;;6.50;2.55;;;;;;;11.13;77.88;100068.63;5054564;28;20064;-88
2022/10/23 03:50:20;;;;;;;3.05;2.38;;;;;;;11.15;77.43;100066.34;5054914;28;20053;-88
2022/10/23 03:52:47;;;;;;;6.20;2.15;;;;;;;11.16;77.82;100059.59;5065168;28;20063;-88
2022/10/23 03:55:14;;;;;;;2.85;1.88;;;;;;;11.17;77.63;100062.06;5074383;28;20396;-88
2022/10/23 03:57:42;;;;;;;7.20;2.47;;;;;;;11.18;77.51;100054.53;5074764;28;20076;-89
2022/10/23 04:00:10;;;;;;;3.65;2.20;;;;;;;11.22;77.35;100049.13;5074158;28;20057;-88
2022/10/23 04:02:38;;;;;;;9.60;2.55;;;;;;;11.21;77.21;100039.91;5071886;28;20075;-88
2022/10/23 04:05:06;;;;;;;6.07;3.08;;;;;;;11.23;77.16;100032.03;5053461;28;20057;-88
2022/10/23 04:07:35;;;;;;;7.40;3.78;;;;;;;11.25;77.28;100038.09;5014116;28;20061;-88
2022/10/23 04:10:02;;;;;;;4.82;3.45;;;;;;;11.27;77.05;100033.03;5014638;28;20057;-88
2022/10/23 04:12:29;;;;;;;6.55;3.40;;;;;;;11.26;76.92;100045.34;5014590;28;20057;-88
2022/10/23 04:14:56;;;;;;;5.18;3.28;;;;;;;11.26;76.43;100038.94;5014597;28;20061;-88
2022/10/23 04:17:24;;;;;;;4.15;2.85;;;;;;;11.21;76.11;100031.53;5015267;28;20057;-88
2022/10/23 04:19:51;;;;;;;4.47;2.95;;;;;;;11.20;75.84;100032.72;5015092;28;20060;-88
2022/10/23 04:22:18;;;;;;;7.05;3.15;;;;;;;11.23;75.78;100045.97;5016249;28;20414;-88
2022/10/23 04:24:47;;;;;;;5.35;4.50;;;;;;;11.20;75.65;100046.66;5014487;28;20065;-88
2022/10/23 04:27:15;;;;;;;7.03;3.40;;;;;;;11.18;75.51;100048.94;5014323;28;20054;-89
2022/10/23 04:29:42;;;;;;;5.90;3.10;;;;;;;11.21;75.63;100053.84;5014417;28;20058;-88
2022/10/23 04:32:09;;;;;;;3.88;2.97;;;;;;;11.22;75.87;100040.75;5014674;28;20065;-88
2022/10/23 04:34:36;;;;;;;8.50;3.20;;;;;;;11.24;75.84;100039.25;5012963;28;20057;-88
2022/10/23 04:37:04;;;;;;;4.07;3.15;;;;;;;11.24;75.38;100049.59;5012958;28;20050;-89
2022/10/23 04:39:31;;;;;;;6.80;3.60;;;;;;;11.21;75.96;100036.31;5014072;28;20054;-88
2022/10/23 04:42:00;;;;;;;7.07;3.45;;;;;;;11.18;75.64;100018.28;5013456;28;20068;-88
2022/10/23 04:44:27;;;;;;;7.30;3.30;;;;;;;11.17;76.91;100025.00;5013945;28;20057;-88
2022/10/23 04:46:55;;;;;;;7.80;3.58;;;;;;;11.18;76.43;100026.66;5015322;28;20061;-88
2022/10/23 04:49:25;;;;;;;7.57;3.67;;;;;;;11.17;76.28;100025.84;5014644;28;20058;-88
2022/10/23 04:51:53;;;;;;;4.50;3.40;;;;;;;11.18;76.34;100021.06;5021542;28;20490;-88
2022/10/23 04:54:20;;;;;;;5.05;3.97;;;;;;;11.20;76.91;100032.72;5018216;28;20061;-87
2022/10/23 04:56:48;;;;;;;4.63;3.10;;;;;;;11.22;76.96;100022.03;5015022;28;20057;-89
2022/10/23 04:59:16;;;;;;;5.90;3.90;;;;;;;11.23;76.97;100015.31;5014471;28;20494;-88
2022/10/23 05:01:47;;;;;;;4.38;3.33;;;;;;;11.29;77.02;100011.19;5015001;28;20054;-88
2022/10/23 05:04:14;;;;;;;6.50;3.28;;;;;;;11.34;76.83;100013.03;5014471;28;20426;-87
2022/10/23 05:06:46;;;;;;;5.30;3.58;;;;;;;11.36;77.24;100005.16;5040303;28;20064;-87
2022/10/23 05:09:13;;;;;;;7.18;3.80;;;;;;;11.36;77.16;100002.34;5053321;28;20060;-88
2022/10/23 05:11:41;;;;;;;6.88;3.80;;;;;;;11.35;76.88;99993.16;5054402;28;20063;-88
2022/10/23 05:14:08;;;;;;;6.05;3.60;;;;;;;11.35;77.06;99998.72;5053950;28;20053;-88
2022/10/23 05:16:43;;;;;;;6.40;3.75;;;;;;;11.35;76.80;99993.16;5054890;28;20060;-88
2022/10/23 05:19:18;;;;;;;7.65;4.10;;;;;;;11.31;76.66;99994.97;5057975;28;20057;-88
2022/10/23 05:21:47;;;;;;;6.75;4.10;;;;;;;11.35;76.47;99990.38;5057601;28;20076;-88
2022/10/23 05:24:14;;;;;;;9.25;4.45;;;;;;;11.38;76.97;99986.94;5076127;28;20068;-88
2022/10/23 05:26:42;;;;;;;5.38;3.25;;;;;;;11.42;76.72;99983.47;5077181;28;20052;-88
2022/10/23 05:29:09;;;;;;;5.55;2.90;;;;;;;11.46;76.92;99987.22;5077767;28;20427;-88
2022/10/23 05:31:38;;;;;;;4.45;3.47;;;;;;;11.45;76.44;99983.63;5076961;28;20408;-88
2022/10/23 05:34:06;;;;;;;4.90;3.40;;;;;;;11.47;76.22;99994.47;5077991;28;20048;-88
2022/10/23 05:36:33;;;;;;;7.00;4.00;;;;;;;11.43;76.62;99997.09;5064819;28;20428;-88
2022/10/23 05:39:02;;;;;;;5.80;4.20;;;;;;;11.44;76.50;99989.53;5055755;28;20382;-88
2022/10/23 05:41:29;;;;;;;3.72;3.33;;;;;;;11.46;77.16;99992.81;5057325;28;20053;-88
2022/10/23 05:43:57;;;;;;;4.53;3.30;;;;;;;11.50;76.73;99989.00;5057419;28;20049;-88
2022/10/23 05:46:24;;;;;;;7.57;4.28;;;;;;;11.51;76.44;99985.09;5055696;28;20406;-88
2022/10/23 05:48:53;;;;;;;3.80;3.10;;;;;;;11.53;76.12;99998.72;5056785;28;20056;-88
2022/10/23 05:51:22;;;;;;;4.45;3.40;;;;;;;11.53;76.49;99990.34;5056906;28;20435;-88
2022/10/23 05:53:49;;;;;;;5.20;4.20;;;;;;;11.50;76.35;99979.81;5055209;28;20064;-87
2022/10/23 05:56:17;;;;;;;5.22;3.40;;;;;;;11.49;75.97;99989.38;5050366;28;20061;-88
2022/10/23 05:58:44;;;;;;;5.50;4.00;;;;;;;11.45;76.33;99980.03;5055772;28;20052;-88
2022/10/23 06:01:13;;;;;;;5.13;3.42;;;;;;;11.46;76.40;99993.63;5056753;28;20053;-88
2022/10/23 06:03:41;;;;;;;5.05;4.38;;;;;;;11.44;76.08;99984.75;5056419;28;20163;-87
2022/10/23 06:06:09;;;;;;;5.63;3.78;;;;;;;11.40;76.44;99988.56;5056348;28;20073;-88
2022/10/23 06:08:37;;;;;;;7.18;3.67;;;;;;;11.37;76.40;99982.50;5056997;28;20057;-87
2022/10/23 06:11:09;;;;;;;4.97;3.75;;;;;;;11.37;76.15;99974.13;5056770;28;20053;-87
2022/10/23 06:13:36;;;;;;;6.68;4.07;;;;;;;11.32;76.72;99974.31;5057342;28;20053;-88
2022/10/23 06:16:10;;;;;;;7.05;4.28;;;;;;;11.31;76.42;99955.13;5056824;28;20516;-88
2022/10/23 06:18:37;;;;;;;5.55;3.60;;;;;;;11.32;76.79;99953.97;5052891;28;20048;-88
2022/10/23 06:21:05;;;;;;;5.60;4.00;;;;;;;11.33;76.69;99955.59;5057182;28;20053;-87
2022/10/23 06:23:36;;;;;;;7.32;3.97;;;;;;;11.35;76.92;99948.53;5045020;28;20056;-87
2022/10/23 06:26:03;;;;;;;4.97;3.55;;;;;;;11.39;76.86;99943.13;5056855;28;20136;-88
2022/10/23 06:28:31;;;;;;;6.90;4.05;;;;;;;11.42;77.19;99939.66;5058464;28;20067;-88
2022/10/23 06:30:58;;;;;;;8.77;4.20;;;;;;;11.50;77.10;99951.94;5058440;28;20068;-88
2022/10/23 06:33:25;;;;;;;4.80;4.03;;;;;;;11.58;76.68;99942.72;5054692;28;20071;-88
2022/10/23 06:35:55;;;;;;;4.30;3.45;;;;;;;11.65;76.88;99940.22;5061055;28;20066;-87
2022/10/23 06:38:23;;;;;;;7.32;3.58;;;;;;;11.71;76.71;99938.06;5079334;28;20041;-87
2022/10/23 06:40:54;;;;;;;4.53;3.50;;;;;;;11.78;76.61;99933.63;5078985;28;20063;-87
2022/10/23 06:43:22;;;;;;;5.18;3.60;;;;;;;11.83;76.40;99940.16;5078845;28;20059;-87
2022/10/23 06:45:49;;;;;;;4.70;3.13;;;;;;;11.94;75.42;99935.84;5079283;28;20119;-88
2022/10/23 06:48:16;;;;;;;7.15;3.60;;;;;;;12.01;75.42;99930.59;5077425;28;20057;-87
2022/10/23 06:50:44;;;;;;;5.93;4.20;;;;;;;12.18;74.77;99924.88;5074513;28;20223;-88
2022/10/23 06:53:11;;;;;;;6.60;3.40;;;;;;;12.35;74.99;99920.34;5078900;28;20087;-87
2022/10/23 06:55:39;;;;;;;6.43;3.47;;;;;;;12.53;73.88;99921.00;5078594;28;20053;-88
2022/10/23 06:58:09;;;;;;;5.90;3.30;;;;;;;12.68;75.33;99925.97;5077849;28;20033;-86
2022/10/23 07:00:40;;;;;;;;;;;;;;;12.83;78.13;99924.53;5086788;28;20045;-87
2022/10/23 07:03:08;;;;;;;4.97;3.28;;;;;;;13.10;76.66;99920.31;5087017;28;19925;-88
2022/10/23 07:05:35;;;;;;;4.72;2.80;;;;;;;13.31;76.32;99923.09;5052628;28;20072;-88
2022/10/23 07:08:05;;;;;;;4.60;2.42;;;;;;;13.50;78.87;99919.72;5055404;28;20052;-87
2022/10/23 07:10:32;;;;;;;5.82;2.35;;;;;;;13.62;76.97;99924.50;5054174;28;20055;-87
2022/10/23 07:12:59;;;;;;;5.13;3.40;;;;;;;13.71;74.03;99921.59;5055431;28;20060;-88
2022/10/23 07:15:32;;;;;;;5.60;3.15;;;;;;;13.73;74.73;99914.50;5054741;28;20063;-86
2022/10/23 07:17:59;;;;;;;6.28;3.60;;;;;;;13.77;72.79;99921.03;5054383;28;20076;-86
2022/10/23 07:20:26;;;;;;;4.50;3.47;;;;;;;13.81;73.36;99919.16;5054406;28;20044;-84
2022/10/23 07:22:55;;;;;;;5.45;3.25;;;;;;;13.85;73.93;99915.66;5073500;28;20062;-84
2022/10/23 07:25:23;;;;;;;3.83;2.17;;;;;;;13.92;76.41;99913.91;5055030;28;20061;-84
2022/10/23 07:27:51;;;;;;;3.17;1.88;;;;;;;14.09;77.31;99912.00;5053760;28;20525;-83
2022/10/23 07:30:29;;;;;;;6.75;2.83;;;;;;;14.25;75.99;99914.91;5053993;28;20056;-84
2022/10/23 07:32:58;;;;;;;7.07;3.90;;;;;;;14.28;72.11;99908.59;5051125;28;20060;-83
2022/10/23 07:35:26;;;;;;;7.03;3.72;;;;;;;14.23;70.38;99914.47;5052852;28;20068;-85
2022/10/23 07:40:34;;;;;;;6.53;3.33;;;;;;;14.24;73.04;99913.28;5066412;28;20056;-85
2022/10/23 07:43:02;;;;;;;7.18;2.40;;;;;;;14.29;75.79;99908.25;5059610;28;20056;-85
2022/10/23 07:45:29;;;;;;;10.90;7.07;;;;;;;14.46;74.09;99917.56;5055918;28;20064;-84
2022/10/23 07:47:58;;;;;;;6.22;3.40;;;;;;;14.60;75.46;99912.41;5051655;28;20053;-85
2022/10/23 07:50:25;;;;;;;5.40;2.67;;;;;;;14.74;74.72;99904.44;5053765;28;20060;-84
2022/10/23 07:52:52;;;;;;;4.10;2.30;;;;;;;14.88;74.17;99906.00;5053842;28;20053;-84
2022/10/23 07:55:19;;;;;;;4.65;2.50;;;;;;;14.94;72.73;99899.75;5052765;28;20060;-84
2022/10/23 07:57:46;;;;;;;5.53;2.35;;;;;;;14.99;72.81;99905.13;5053197;28;20053;-83
2022/10/23 08:00:14;;;;;;;4.22;2.30;;;;;;;15.05;72.49;99899.25;5057637;28;20056;-84
2022/10/23 08:02:41;;;;;;;6.82;3.47;;;;;;;15.25;71.01;99900.19;5069973;28;20053;-83
2022/10/23 08:05:10;;;;;;;3.90;2.40;;;;;;;15.41;71.75;99899.03;5057118;28;20068;-83
2022/10/23 08:07:37;;;;;;;7.80;3.45;;;;;;;15.50;70.47;99904.47;5072771;28;20057;-83
2022/10/23 08:10:06;;;;;;;9.00;4.55;;;;;;;15.59;69.91;99896.66;5070269;28;20053;-83
2022/10/23 08:12:33;;;;;;;5.65;4.18;;;;;;;15.65;68.37;99894.41;5052947;28;20053;-83
2022/10/23 08:15:00;;;;;;;5.88;3.83;;;;;;;15.72;68.34;99891.00;5053023;28;20060;-84
2022/10/23 08:17:30;;;;;;;6.53;4.70;;;;;;;15.89;67.40;99901.03;5051872;28;20056;-82
2022/10/23 08:19:57;;;;;;;5.55;4.57;;;;;;;15.97;66.89;99888.78;5037505;28;20060;-84
2022/10/23 08:22:26;;;;;;;10.48;2.63;;;;;;;16.12;68.42;99884.31;5051722;28;20056;-82
2022/10/23 08:24:53;;;;;;;6.03;4.90;;;;;;;16.28;67.16;99882.28;5050502;28;20052;-84
2022/10/23 08:27:21;;;;;;;6.70;3.53;;;;;;;16.62;67.64;99871.34;5060061;28;20049;-84
2022/10/23 08:29:48;;;;;;;4.10;2.30;;;;;;;17.04;67.28;99867.78;5056608;28;20057;-83
2022/10/23 08:32:15;;;;;;;5.53;2.33;;;;;;;17.51;65.96;99862.97;5069700;28;20074;-84
2022/10/23 08:34:45;;;;;;;5.10;3.67;;;;;;;18.14;63.98;99856.75;5072510;28;20063;-83
2022/10/23 08:37:12;;;;;;;;;;;;;;;18.78;63.68;99845.50;5073127;28;20060;-83
2022/10/23 08:39:40;;;;;;;8.48;4.30;;;;;;;20.07;59.65;99845.84;5072483;28;19927;-84
2022/10/23 08:42:19;;;;;;;8.02;3.30;;;;;;;21.76;56.41;99844.34;5054725;28;20049;-84
2022/10/23 08:44:55;;;;;;;5.03;3.50;;;;;;;23.18;51.16;99849.16;5052253;28;20057;-84
2022/10/23 08:47:28;;;;;;;5.10;3.00;;;;;;;24.91;45.72;99841.34;5052811;28;20080;-84
2022/10/23 08:49:59;;;;;;;6.78;2.83;;;;;;;26.70;42.71;99837.47;5053110;28;20057;-84
2022/10/23 08:52:35;;;;;;;6.25;3.15;;;;;;;27.72;40.08;99831.03;5052065;28;20378;-84
2022/10/23 08:55:15;;;;;;;5.40;3.10;;;;;;;28.07;39.02;99823.56;5051816;28;20057;-84
2022/10/23 08:57:53;;;;;;;3.30;2.28;;;;;;;29.07;37.20;99834.19;5052254;28;20060;-84
2022/10/23 09:00:20;;;;;;;6.40;2.63;;;;;;;29.59;36.52;99839.94;5053137;28;20053;-85
2022/10/23 09:02:50;;;;;;;4.70;2.28;;;;;;;30.18;35.17;99829.72;5052785;28;20475;-84
2022/10/23 09:05:21;;;;;;;4.78;2.60;;;;;;;31.28;34.04;99837.47;5052474;28;20057;-85
2022/10/23 09:08:13;;;;;;;4.05;2.33;;;;;;;31.88;33.24;99828.41;5052055;28;20445;-85
2022/10/23 09:10:56;;;;;;;6.38;5.65;;;;;;;32.38;33.05;99815.94;5053101;28;20053;-85
2022/10/23 09:13:41;;;;;;;7.68;6.47;;;;;;;32.36;32.35;99808.59;5051460;28;20532;-85
2022/10/23 09:16:21;;;;;;;7.60;4.55;;;;;;;31.75;32.53;99808.38;5052544;28;20052;-84
2022/10/23 09:18:49;;;;;;;6.35;2.38;;;;;;;30.87;32.33;99814.44;5052595;28;20490;-84
2022/10/23 09:21:17;;;;;;;3.22;1.92;;;;;;;30.24;32.74;99807.75;5052266;28;20057;-84
2022/10/23 09:23:44;;;;;;;3.85;1.35;;;;;;;29.23;33.89;99816.13;5052372;28;20049;-84
2022/10/23 09:26:16;;;;;;;4.75;1.17;;;;;;;27.42;37.12;99807.25;5052296;28;20077;-84
2022/10/23 09:28:47;;;;;;;2.35;1.20;;;;;;;26.72;37.74;99812.13;5055809;28;20489;-84
2022/10/23 09:31:19;;;;;;;3.45;1.10;;;;;;;27.35;36.81;99807.44;5052672;28;20064;-84
2022/10/23 09:33:57;;;;;;;4.28;1.25;;;;;;;27.74;35.69;99797.84;5052025;28;20060;-84
2022/10/23 09:36:28;;;;;;;2.55;1.27;;;;;;;27.86;36.13;99798.41;5051839;28;20057;-84
2022/10/23 09:38:57;;;;;;;3.30;1.10;;;;;;;28.19;34.81;99801.97;5052659;28;20053;-84
2022/10/23 09:41:28;;;;;;;3.38;1.23;;;;;;;27.78;35.88;99802.66;5051605;28;20053;-85
2022/10/23 09:44:18;;;;;;;4.93;1.10;;;;;;;27.81;35.69;99794.00;5054088;28;20063;-86
2022/10/23 09:46:47;;;;;;;3.13;1.10;;;;;;;27.68;36.26;99796.78;5054244;28;20056;-87
2022/10/23 09:49:20;;;;;;;2.92;0.90;;;;;;;26.93;36.60;99792.88;5053683;28;20068;-87
2022/10/23 09:52:04;;;;;;;2.47;1.10;;;;;;;26.43;38.03;99779.69;5065994;28;20056;-87
2022/10/23 09:54:38;;;;;;;5.97;1.17;;;;;;;25.81;39.41;99776.41;5072477;28;20057;-84
2022/10/23 09:57:22;;;;;;;2.80;1.20;;;;;;;25.34;39.93;99784.97;5034234;28;20064;-89
2022/10/23 09:59:52;;;;;;;3.42;1.13;;;;;;;24.76;41.55;99774.41;5046536;28;20061;-84
2022/10/23 10:02:27;;;;;;;5.65;1.40;;;;;;;23.91;42.66;99779.91;5040636;28;20068;-84
2022/10/23 10:04:54;;;;;;;3.13;1.30;;;;;;;23.42;44.35;99770.63;5056964;28;20060;-84
2022/10/23 10:07:25;;;;;;;5.50;1.40;;;;;;;22.77;45.19;99773.09;5055521;28;20057;-84
2022/10/23 10:09:57;;;;;;;6.45;1.30;;;;;;;22.46;46.35;99767.97;5054788;28;20312;-84
2022/10/23 10:12:47;;;;;;;6.97;1.30;;;;;;;21.93;47.50;99759.66;5055590;28;20152;-84
2022/10/23 10:15:23;;;;;;;2.83;1.05;;;;;;;21.79;48.20;99769.81;5055591;28;20076;-84
2022/10/23 10:18:00;;;;;;;3.13;1.48;;;;;;;21.41;49.50;99765.78;5064906;28;20497;-83
2022/10/23 10:20:54;;;;;;;2.08;1.27;;;;;;;21.22;50.05;99761.34;5054839;28;20072;-84
2022/10/23 10:23:29;;;;;;;2.67;1.30;;;;;;;21.07;50.18;99761.34;5037055;28;20071;-84
2022/10/23 10:26:10;;;;;;;3.05;1.10;;;;;;;21.16;50.51;99766.59;5053602;28;20390;-84
2022/10/23 10:29:03;;;;;;;4.78;1.20;;;;;;;21.02;50.86;99752.44;5055774;28;20049;-84
2022/10/23 10:31:43;;;;;;;6.13;1.60;;;;;;;21.01;50.92;99745.16;5055776;28;20064;-84
2022/10/23 10:34:17;;;;;;;3.60;1.20;;;;;;;20.90;51.30;99738.69;5054842;28;20053;-84
2022/10/23 10:36:50;;;;;;;4.32;1.30;;;;;;;20.73;51.67;99741.09;5053847;28;20068;-84
2022/10/23 10:39:31;;;;;;;5.45;1.50;;;;;;;20.75;52.14;99732.19;5056002;28;20056;-84
2022/10/23 10:42:22;;;;;;;4.38;1.40;;;;;;;20.38;52.38;99731.25;5054409;28;20106;-84
2022/10/23 10:45:17;;;;;;;6.97;1.35;;;;;;;20.38;53.31;99724.78;5055444;28;20053;-83
2022/10/23 10:47:59;;;;;;;2.20;1.08;;;;;;;20.32;52.78;99713.06;5054926;28;20053;-84
2022/10/23 10:50:31;;;;;;;5.18;1.48;;;;;;;20.40;53.17;99711.06;5055375;28;20053;-84
2022/10/23 10:53:09;;;;;;;3.25;1.17;;;;;;;20.30;52.97;99717.50;5055051;28;20056;-84
2022/10/23 10:55:39;;;;;;;6.10;1.15;;;;;;;20.32;52.73;99720.75;5055775;28;20056;-84
2022/10/23 10:58:16;;;;;;;2.42;1.00;;;;;;;20.35;52.86;99702.94;5055339;28;20053;-83
2022/10/23 11:00:50;;;;;;;8.95;1.83;;;;;;;20.35;53.64;99702.94;5065800;28;20063;-84
2022/10/23 11:03:30;;;;;;;5.50;1.38;;;;;;;20.30;53.48;99700.53;5075120;28;20063;-83
2022/10/23 11:06:00;;;;;;;7.28;1.50;;;;;;;20.32;53.83;99693.25;5072471;28;20057;-83
2022/10/23 11:08:31;;;;;;;;;;;;;;;20.24;53.70;99692.44;5075469;28;20067;-84
2022/10/23 11:11:04;;;;;;;8.20;1.45;;;;;;;20.32;53.60;99689.63;5074988;28;19920;-83
2022/10/23 11:13:36;;;;;;;3.63;1.17;;;;;;;20.27;54.20;99688.81;5073653;28;20055;-83
2022/10/23 11:16:11;;;;;;;2.75;1.10;;;;;;;20.33;53.73;99679.94;5074436;28;20092;-83
2022/10/23 11:18:42;;;;;;;2.53;1.25;;;;;;;20.20;54.46;99685.97;5064196;28;20048;-83
2022/10/23 11:21:22;;;;;;;5.07;1.58;;;;;;;20.34;53.93;99681.56;5054288;28;20060;-82
2022/10/23 11:24:31;;;;;;;2.78;1.20;;;;;;;20.47;53.50;99675.13;5054110;28;20060;-82
2022/10/23 11:27:13;;;;;;;4.18;1.70;;;;;;;20.61;52.98;99667.88;5054658;28;20053;-83
2022/10/23 11:30:04;;;;;;;4.25;1.10;;;;;;;20.75;52.99;99658.63;5054110;28;20072;-83
2022/10/23 11:33:01;;;;;;;3.13;1.10;;;;;;;20.70;52.56;99656.97;5053684;28;20072;-83
2022/10/23 11:35:44;;;;;;;4.50;1.30;;;;;;;20.77;52.89;99644.88;5053379;28;20065;-83
2022/10/23 11:38:17;;;;;;;2.58;1.20;;;;;;;20.83;53.08;99632.72;5053940;28;20056;-83
2022/10/23 11:40:46;;;;;;;3.90;1.48;;;;;;;20.83;53.32;99626.25;5053522;28;20064;-83
2022/10/23 11:43:13;;;;;;;3.75;1.40;;;;;;;20.81;52.69;99621.00;5053924;28;20509;-83
2022/10/23 11:45:41;;;;;;;4.78;1.20;;;;;;;20.83;52.76;99614.91;5053856;28;20105;-83
2022/10/23 11:48:23;;;;;;;4.95;1.30;;;;;;;21.08;52.56;99617.72;5053830;28;20057;-83
2022/10/23 11:50:53;;;;;;;6.32;1.40;;;;;;;21.18;52.37;99613.25;5052063;28;20417;-84